Time;durP1;ratioP1;P1;durP2;ratioP2;P2;SDS_P1;SDS_P2;PMS_P1;PMS_P2;Temp;Humidity;BMP_temperature;BMP_pressure;BME280_temperature;BME280_humidity;BME280_pressure;Samples;Min_cycle;Max_cycle;Signal;HPM_P1;HPM_P2
2022/09/13 00:00:49;;;;;;;6.30;5.90;;;;;;;;;;5044161;28;24428;-48
2022/09/13 00:03:15;;;;;;;6.25;5.85;;;;;;;;;;5043986;28;24443;-47
2022/09/13 00:05:40;;;;;;;5.90;5.50;;;;;;;;;;5045230;28;24435;-47
2022/09/13 00:08:06;;;;;;;6.20;5.80;;;;;;;;;;5046347;28;24453;-47
2022/09/13 00:10:33;;;;;;;6.00;5.60;;;;;;;;;;5029249;28;24573;-47
2022/09/13 00:12:58;;;;;;;6.72;6.22;;;;;;;;;;5041076;28;24823;-47
2022/09/13 00:15:24;;;;;;;7.10;6.60;;;;;;;;;;5035271;28;25020;-47
2022/09/13 00:17:49;;;;;;;5.90;5.50;;;;;;;;;;5037537;28;24428;-47
2022/09/13 00:20:14;;;;;;;6.20;5.80;;;;;;;;;;5032368;28;24926;-48
2022/09/13 00:22:39;;;;;;;6.27;5.87;;;;;;;;;;5028076;28;24489;-47
2022/09/13 00:25:05;;;;;;;5.78;5.43;;;;;;;;;;5033010;28;24770;-47
2022/09/13 00:27:31;;;;;;;6.40;5.90;;;;;;;;;;5044049;28;24786;-46
2022/09/13 00:29:56;;;;;;;5.82;5.43;;;;;;;;;;5038924;28;24506;-47
2022/09/13 00:32:21;;;;;;;6.40;6.00;;;;;;;;;;5045393;28;24835;-47
2022/09/13 00:34:46;;;;;;;6.00;5.60;;;;;;;;;;5039130;28;24427;-48
2022/09/13 00:37:12;;;;;;;6.07;5.68;;;;;;;;;;5041299;28;24463;-48
2022/09/13 00:39:37;;;;;;;5.80;5.50;;;;;;;;;;5047138;28;25325;-48
2022/09/13 00:42:02;;;;;;;5.90;5.50;;;;;;;;;;5047270;28;24427;-48
2022/09/13 00:44:46;;;;;;;6.40;5.90;;;;;;;;;;5038889;28;24453;-47
2022/09/13 00:47:14;;;;;;;6.30;5.90;;;;;;;;;;5041821;28;24423;-47
2022/09/13 00:49:40;;;;;;;6.60;6.10;;;;;;;;;;5039290;28;24424;-47
2022/09/13 00:52:07;;;;;;;6.30;5.90;;;;;;;;;;5040538;28;24990;-48
2022/09/13 00:54:39;;;;;;;5.80;5.40;;;;;;;;;;5042102;28;24431;-49
2022/09/13 00:57:04;;;;;;;6.50;6.00;;;;;;;;;;5044171;28;24790;-48
2022/09/13 00:59:32;;;;;;;5.88;5.47;;;;;;;;;;5040529;28;24434;-46
2022/09/13 01:02:00;;;;;;;6.82;6.32;;;;;;;;;;5034842;28;25086;-47
2022/09/13 01:04:26;;;;;;;5.90;5.50;;;;;;;;;;5036419;28;24457;-48
2022/09/13 01:06:53;;;;;;;6.20;5.80;;;;;;;;;;5048138;28;24455;-47
2022/09/13 01:09:18;;;;;;;5.80;5.40;;;;;;;;;;5048029;28;24790;-47
2022/09/13 01:11:49;;;;;;;6.50;6.10;;;;;;;;;;5046467;28;25188;-48
2022/09/13 01:14:16;;;;;;;6.85;6.45;;;;;;;;;;5037430;28;24526;-47
2022/09/13 01:16:41;;;;;;;6.80;6.40;;;;;;;;;;5036743;28;25039;-47
2022/09/13 01:19:06;;;;;;;6.70;6.30;;;;;;;;;;5035590;28;24450;-48
2022/09/13 01:21:54;;;;;;;5.97;5.57;;;;;;;;;;5042288;28;24951;-48
2022/09/13 01:24:28;;;;;;;7.67;7.17;;;;;;;;;;5034188;28;24458;-48
2022/09/13 01:27:20;;;;;;;6.87;6.37;;;;;;;;;;5038127;28;25136;-48
2022/09/13 01:30:04;;;;;;;7.00;6.50;;;;;;;;;;5031232;28;24435;-48
2022/09/13 01:32:41;;;;;;;6.63;6.22;;;;;;;;;;5036775;28;24481;-47
2022/09/13 01:35:25;;;;;;;6.10;5.70;;;;;;;;;;5038557;28;25215;-48
2022/09/13 01:38:09;;;;;;;6.55;6.05;;;;;;;;;;5036412;28;24432;-47
2022/09/13 01:40:44;;;;;;;6.18;5.78;;;;;;;;;;5034998;28;24512;-47
2022/09/13 01:43:24;;;;;;;7.40;6.93;;;;;;;;;;5037382;28;24463;-47
2022/09/13 01:46:09;;;;;;;6.40;6.00;;;;;;;;;;5031445;28;24535;-47
2022/09/13 01:48:38;;;;;;;6.35;5.95;;;;;;;;;;5039431;28;24427;-48
2022/09/13 01:51:06;;;;;;;6.47;6.05;;;;;;;;;;5037829;28;24477;-47
2022/09/13 01:53:39;;;;;;;6.53;6.13;;;;;;;;;;5042193;28;24431;-47
2022/09/13 01:56:22;;;;;;;5.72;5.30;;;;;;;;;;5044316;28;24482;-47
2022/09/13 01:58:59;;;;;;;6.47;6.07;;;;;;;;;;5030744;28;24424;-48
2022/09/13 02:01:30;;;;;;;5.80;5.30;;;;;;;;;;5038814;28;24497;-47
2022/09/13 02:04:07;;;;;;;6.10;5.70;;;;;;;;;;5034722;28;24442;-47
2022/09/13 02:06:38;;;;;;;6.43;5.85;;;;;;;;;;5035727;28;24446;-48
2022/09/13 02:09:08;;;;;;;7.13;6.60;;;;;;;;;;5037264;28;24818;-48
2022/09/13 02:11:33;;;;;;;6.43;6.00;;;;;;;;;;5040097;28;24438;-47
2022/09/13 02:14:04;;;;;;;7.00;6.50;;;;;;;;;;5041523;28;24423;-51
2022/09/13 02:16:32;;;;;;;6.60;6.20;;;;;;;;;;5037828;28;24423;-46
2022/09/13 02:18:59;;;;;;;6.10;5.70;;;;;;;;;;5030414;28;24529;-47
2022/09/13 02:21:27;;;;;;;5.80;5.40;;;;;;;;;;5039873;28;24865;-48
2022/09/13 02:23:54;;;;;;;5.90;5.50;;;;;;;;;;5031591;28;24727;-47
2022/09/13 02:26:21;;;;;;;5.65;5.32;;;;;;;;;;5034827;28;25015;-47
2022/09/13 02:28:49;;;;;;;6.70;6.20;;;;;;;;;;5033692;28;24794;-47
2022/09/13 02:31:17;;;;;;;6.50;6.00;;;;;;;;;;5047268;28;25287;-47
2022/09/13 02:33:45;;;;;;;6.70;6.30;;;;;;;;;;5040426;28;24994;-48
2022/09/13 02:36:16;;;;;;;6.18;5.72;;;;;;;;;;5041705;28;24543;-48
2022/09/13 02:38:46;;;;;;;6.00;5.60;;;;;;;;;;5037070;28;24976;-47
2022/09/13 02:41:32;;;;;;;6.10;5.70;;;;;;;;;;5046877;28;24450;-48
2022/09/13 02:44:13;;;;;;;6.75;6.25;;;;;;;;;;5041305;28;24442;-48
2022/09/13 02:46:50;;;;;;;6.93;6.53;;;;;;;;;;5039049;28;24987;-49
2022/09/13 02:49:25;;;;;;;6.68;6.28;;;;;;;;;;5045128;28;24415;-48
2022/09/13 02:51:54;;;;;;;6.50;6.10;;;;;;;;;;5041200;28;24419;-46
2022/09/13 02:54:24;;;;;;;6.82;6.43;;;;;;;;;;5042493;28;24573;-47
2022/09/13 02:57:03;;;;;;;7.50;7.00;;;;;;;;;;5033620;28;24518;-47
2022/09/13 02:59:29;;;;;;;6.10;5.70;;;;;;;;;;5036882;28;24562;-47
2022/09/13 03:02:05;;;;;;;7.00;6.40;;;;;;;;;;5040179;28;25021;-47
2022/09/13 03:04:31;;;;;;;6.75;6.35;;;;;;;;;;5040763;28;25063;-47
2022/09/13 03:06:57;;;;;;;7.38;6.88;;;;;;;;;;5044158;28;24443;-46
2022/09/13 03:09:22;;;;;;;6.80;6.40;;;;;;;;;;5039834;28;24971;-46
2022/09/13 03:11:58;;;;;;;7.15;6.65;;;;;;;;;;5047460;28;24461;-46
2022/09/13 03:14:41;;;;;;;6.53;6.13;;;;;;;;;;5044674;28;24561;-47
2022/09/13 03:17:12;;;;;;;6.30;5.70;;;;;;;;;;5042023;28;25095;-46
2022/09/13 03:19:42;;;;;;;6.10;5.70;;;;;;;;;;5037092;28;24558;-46
2022/09/13 03:22:37;;;;;;;6.65;6.25;;;;;;;;;;5033602;28;25021;-47
2022/09/13 03:25:21;;;;;;;6.80;6.30;;;;;;;;;;5030580;28;24519;-47
2022/09/13 03:28:01;;;;;;;7.07;6.57;;;;;;;;;;5026379;28;25033;-49
2022/09/13 03:30:26;;;;;;;6.90;6.40;;;;;;;;;;5039889;28;24958;-48
2022/09/13 03:32:58;;;;;;;6.30;5.80;;;;;;;;;;5027021;28;24411;-48
2022/09/13 03:35:31;;;;;;;6.65;6.25;;;;;;;;;;5033180;28;24973;-48
2022/09/13 03:38:00;;;;;;;7.90;7.30;;;;;;;;;;5032910;28;25030;-46
2022/09/13 03:40:38;;;;;;;7.55;7.05;;;;;;;;;;5040376;28;24438;-46
2022/09/13 03:43:08;;;;;;;6.97;6.47;;;;;;;;;;5046326;28;24601;-46
2022/09/13 03:45:35;;;;;;;7.50;6.90;;;;;;;;;;5045102;28;24420;-47
2022/09/13 03:48:02;;;;;;;7.70;7.10;;;;;;;;;;5042785;28;24859;-47
2022/09/13 03:50:27;;;;;;;6.68;6.28;;;;;;;;;;5043210;28;25037;-48
2022/09/13 03:52:56;;;;;;;7.10;6.70;;;;;;;;;;5057284;28;24415;-47
2022/09/13 03:55:21;;;;;;;7.03;6.63;;;;;;;;;;5044324;28;24428;-47
2022/09/13 03:57:47;;;;;;;6.80;6.30;;;;;;;;;;5059685;28;24423;-47
2022/09/13 04:00:12;;;;;;;6.20;5.80;;;;;;;;;;5032883;28;24427;-46
2022/09/13 04:02:37;;;;;;;7.13;6.63;;;;;;;;;;5048667;28;24526;-47
2022/09/13 04:05:03;;;;;;;6.77;6.27;;;;;;;;;;5046384;28;24423;-47
2022/09/13 04:07:28;;;;;;;7.30;6.80;;;;;;;;;;5035166;28;24416;-48
2022/09/13 04:09:53;;;;;;;6.80;6.40;;;;;;;;;;5039969;28;25330;-47
2022/09/13 04:12:19;;;;;;;6.80;6.30;;;;;;;;;;5027168;28;24482;-47
2022/09/13 04:14:44;;;;;;;7.00;6.60;;;;;;;;;;5033086;28;24973;-46
2022/09/13 04:17:09;;;;;;;7.00;6.60;;;;;;;;;;5037749;28;24404;-47
2022/09/13 04:19:34;;;;;;;7.70;7.20;;;;;;;;;;5045470;28;25171;-50
2022/09/13 04:21:59;;;;;;;7.27;6.77;;;;;;;;;;5030983;28;24981;-47
2022/09/13 04:24:25;;;;;;;7.27;6.77;;;;;;;;;;5034012;28;24437;-46
2022/09/13 04:26:52;;;;;;;6.80;6.40;;;;;;;;;;5044783;28;24426;-47
2022/09/13 04:29:17;;;;;;;6.75;6.25;;;;;;;;;;5041501;28;24794;-47
2022/09/13 04:31:46;;;;;;;6.57;6.17;;;;;;;;;;5034964;28;25076;-47
2022/09/13 04:34:11;;;;;;;7.38;6.90;;;;;;;;;;5036353;28;25031;-47
2022/09/13 04:36:37;;;;;;;8.43;7.82;;;;;;;;;;5033200;28;24509;-47
2022/09/13 04:39:02;;;;;;;7.43;6.93;;;;;;;;;;5037821;28;24427;-48
2022/09/13 04:41:27;;;;;;;7.40;6.90;;;;;;;;;;5035873;28;24522;-47
2022/09/13 04:43:53;;;;;;;7.20;6.70;;;;;;;;;;5036213;28;24512;-46
2022/09/13 04:46:18;;;;;;;7.50;7.00;;;;;;;;;;5051350;28;24454;-46
2022/09/13 04:48:47;;;;;;;8.00;7.50;;;;;;;;;;5058133;28;24774;-47
2022/09/13 04:51:13;;;;;;;9.10;8.40;;;;;;;;;;5035961;28;24426;-46
2022/09/13 04:53:38;;;;;;;7.50;6.90;;;;;;;;;;5030149;28;25262;-47
2022/09/13 04:56:04;;;;;;;7.50;7.00;;;;;;;;;;5038925;28;24427;-48
2022/09/13 04:58:29;;;;;;;7.20;6.70;;;;;;;;;;5045630;28;24913;-47
2022/09/13 05:00:59;;;;;;;6.83;6.33;;;;;;;;;;5045374;28;24535;-48
2022/09/13 05:03:24;;;;;;;6.97;6.57;;;;;;;;;;5029456;28;24502;-48
2022/09/13 05:05:49;;;;;;;6.88;6.38;;;;;;;;;;5034394;28;24970;-47
2022/09/13 05:08:15;;;;;;;7.78;7.20;;;;;;;;;;5032312;28;24519;-48
2022/09/13 05:10:40;;;;;;;9.02;8.43;;;;;;;;;;5035644;28;24506;-46
2022/09/13 05:13:05;;;;;;;8.82;8.13;;;;;;;;;;5045076;28;25044;-48
2022/09/13 05:15:30;;;;;;;8.20;7.60;;;;;;;;;;5028540;28;24438;-48
2022/09/13 05:17:55;;;;;;;7.80;7.20;;;;;;;;;;5033812;28;24582;-48
2022/09/13 05:20:20;;;;;;;8.23;7.57;;;;;;;;;;5039340;28;24415;-47
2022/09/13 05:22:45;;;;;;;8.63;7.93;;;;;;;;;;5032362;28;24439;-47
2022/09/13 05:25:11;;;;;;;7.75;7.22;;;;;;;;;;5041784;28;24442;-47
2022/09/13 05:27:36;;;;;;;6.07;5.68;;;;;;;;;;5048152;28;24949;-47
2022/09/13 05:30:01;;;;;;;7.00;6.50;;;;;;;;;;5047832;28;24419;-47
2022/09/13 05:32:26;;;;;;;7.73;7.23;;;;;;;;;;5033039;28;24664;-47
2022/09/13 05:34:52;;;;;;;7.03;6.53;;;;;;;;;;5048956;28;24407;-48
2022/09/13 05:37:17;;;;;;;6.40;6.00;;;;;;;;;;5048834;28;24398;-48
2022/09/13 05:39:42;;;;;;;7.10;6.60;;;;;;;;;;5037332;28;24514;-48
2022/09/13 05:42:07;;;;;;;7.05;6.55;;;;;;;;;;5028207;28;24502;-48
2022/09/13 05:44:32;;;;;;;6.30;5.90;;;;;;;;;;5036521;28;24436;-48
2022/09/13 05:46:57;;;;;;;7.10;6.60;;;;;;;;;;5049077;28;24933;-48
2022/09/13 05:49:22;;;;;;;8.23;7.63;;;;;;;;;;5032942;28;24493;-48
2022/09/13 05:51:48;;;;;;;7.75;7.05;;;;;;;;;;5044482;28;24415;-47
2022/09/13 05:54:13;;;;;;;7.00;6.50;;;;;;;;;;5035785;28;25040;-48
2022/09/13 05:56:38;;;;;;;6.77;6.27;;;;;;;;;;5028501;28;24530;-47
2022/09/13 05:59:03;;;;;;;5.93;5.43;;;;;;;;;;5028587;28;24452;-48
2022/09/13 06:01:28;;;;;;;6.60;6.10;;;;;;;;;;5028761;28;24491;-48
2022/09/13 06:03:55;;;;;;;7.10;6.60;;;;;;;;;;5027772;28;24442;-48
2022/09/13 06:06:21;;;;;;;6.85;6.35;;;;;;;;;;5033435;28;24473;-48
2022/09/13 06:08:46;;;;;;;6.28;5.88;;;;;;;;;;5030381;28;24489;-47
2022/09/13 06:11:12;;;;;;;7.25;6.75;;;;;;;;;;5035744;28;24427;-48
2022/09/13 06:13:38;;;;;;;7.20;6.70;;;;;;;;;;5034648;28;24973;-48
2022/09/13 06:16:04;;;;;;;7.00;6.50;;;;;;;;;;5039990;28;24442;-48
2022/09/13 06:18:29;;;;;;;6.30;5.90;;;;;;;;;;5036575;28;24430;-48
2022/09/13 06:21:02;;;;;;;5.90;5.50;;;;;;;;;;5036525;28;24810;-47
2022/09/13 06:23:28;;;;;;;6.57;5.97;;;;;;;;;;5036505;28;25007;-49
2022/09/13 06:26:07;;;;;;;6.65;6.22;;;;;;;;;;5042194;28;24434;-45
2022/09/13 06:28:33;;;;;;;5.90;5.50;;;;;;;;;;5043211;28;24415;-47
2022/09/13 06:31:02;;;;;;;6.30;5.90;;;;;;;;;;5042755;28;24442;-46
2022/09/13 06:33:27;;;;;;;5.90;5.50;;;;;;;;;;5038843;28;24984;-46
2022/09/13 06:35:52;;;;;;;5.13;4.83;;;;;;;;;;5039466;28;24440;-46
2022/09/13 06:38:18;;;;;;;5.40;5.00;;;;;;;;;;5046311;28;24399;-47
2022/09/13 06:40:43;;;;;;;5.38;4.97;;;;;;;;;;5047121;28;24406;-47
2022/09/13 06:43:08;;;;;;;5.57;5.10;;;;;;;;;;5046608;28;24443;-47
2022/09/13 06:45:33;;;;;;;4.80;4.50;;;;;;;;;;5047725;28;24394;-47
2022/09/13 06:47:59;;;;;;;5.47;5.07;;;;;;;;;;5048083;28;24761;-47
2022/09/13 06:50:24;;;;;;;5.40;5.00;;;;;;;;;;5047459;28;24382;-48
2022/09/13 06:52:49;;;;;;;5.85;5.40;;;;;;;;;;5035288;28;24438;-47
2022/09/13 06:55:14;;;;;;;5.80;5.40;;;;;;;;;;5027702;28;24946;-47
2022/09/13 06:57:39;;;;;;;6.30;5.80;;;;;;;;;;5027545;28;24398;-47
2022/09/13 07:00:05;;;;;;;6.60;6.10;;;;;;;;;;5027598;28;24491;-48
2022/09/13 07:02:31;;;;;;;6.60;6.10;;;;;;;;;;5028169;28;24435;-48
2022/09/13 07:04:56;;;;;;;6.50;6.00;;;;;;;;;;5027589;28;24511;-48
2022/09/13 07:07:21;;;;;;;5.60;5.20;;;;;;;;;;5030051;28;24593;-48
2022/09/13 07:09:46;;;;;;;6.80;6.07;;;;;;;;;;5025065;28;24395;-48
2022/09/13 07:12:12;;;;;;;6.30;5.80;;;;;;;;;;5027390;28;24402;-48
2022/09/13 07:14:37;;;;;;;6.40;5.90;;;;;;;;;;5027479;28;24447;-48
2022/09/13 07:17:02;;;;;;;5.93;5.43;;;;;;;;;;5027185;28;24391;-48
2022/09/13 07:19:28;;;;;;;5.90;5.50;;;;;;;;;;5040890;28;24446;-49
2022/09/13 07:21:53;;;;;;;5.30;5.00;;;;;;;;;;5047167;28;24395;-48
2022/09/13 07:24:19;;;;;;;5.40;5.00;;;;;;;;;;5046727;28;24442;-49
2022/09/13 07:26:45;;;;;;;6.60;6.10;;;;;;;;;;5046975;28;24717;-48
2022/09/13 07:29:13;;;;;;;5.60;5.10;;;;;;;;;;5037579;28;25015;-49
2022/09/13 07:31:39;;;;;;;5.60;5.20;;;;;;;;;;5026715;28;24462;-47
2022/09/13 07:34:05;;;;;;;5.30;4.90;;;;;;;;;;5026677;28;24921;-49
2022/09/13 07:36:32;;;;;;;6.20;5.70;;;;;;;;;;5026964;28;24774;-48
2022/09/13 07:38:57;;;;;;;4.90;4.60;;;;;;;;;;5027917;28;24435;-48
2022/09/13 07:41:23;;;;;;;5.20;4.80;;;;;;;;;;5032480;28;24453;-46
2022/09/13 07:43:50;;;;;;;5.60;5.10;;;;;;;;;;5047014;28;24419;-47
2022/09/13 07:46:16;;;;;;;5.35;4.85;;;;;;;;;;5046659;28;24487;-47
2022/09/13 07:48:42;;;;;;;4.80;4.50;;;;;;;;;;5044900;28;24414;-48
2022/09/13 07:51:09;;;;;;;4.90;4.50;;;;;;;;;;5044233;28;24447;-48
2022/09/13 07:53:35;;;;;;;4.80;4.50;;;;;;;;;;5038387;28;24458;-47
2022/09/13 07:56:01;;;;;;;5.40;5.00;;;;;;;;;;5026417;28;24970;-46
2022/09/13 07:58:26;;;;;;;6.32;5.93;;;;;;;;;;5026648;28;24670;-48
2022/09/13 08:00:52;;;;;;;5.13;4.83;;;;;;;;;;5026967;28;24977;-48
2022/09/13 08:03:17;;;;;;;5.75;5.35;;;;;;;;;;5026717;28;24432;-48
2022/09/13 08:05:42;;;;;;;5.37;4.87;;;;;;;;;;5026467;28;24391;-48
2022/09/13 08:08:07;;;;;;;6.30;5.80;;;;;;;;;;5026732;28;24571;-47
2022/09/13 08:10:33;;;;;;;6.95;6.38;;;;;;;;;;5026232;28;24454;-48
2022/09/13 08:12:58;;;;;;;7.40;6.80;;;;;;;;;;5032883;28;24510;-48
2022/09/13 08:15:24;;;;;;;8.27;7.68;;;;;;;;;;5037121;28;24978;-49
2022/09/13 08:17:49;;;;;;;8.20;7.50;;;;;;;;;;5026345;28;24396;-48
2022/09/13 08:20:14;;;;;;;7.30;6.80;;;;;;;;;;5026608;28;24461;-48
2022/09/13 08:22:39;;;;;;;7.00;6.50;;;;;;;;;;5025973;28;24828;-48
2022/09/13 08:25:05;;;;;;;7.20;6.60;;;;;;;;;;5043316;28;24480;-49
2022/09/13 08:27:30;;;;;;;6.73;6.23;;;;;;;;;;5043763;28;24564;-48
2022/09/13 08:29:55;;;;;;;7.15;6.65;;;;;;;;;;5030938;28;24527;-47
2022/09/13 08:32:20;;;;;;;7.20;6.70;;;;;;;;;;5025731;28;24522;-48
2022/09/13 08:34:45;;;;;;;6.77;6.27;;;;;;;;;;5045009;28;25207;-48
2022/09/13 08:37:11;;;;;;;6.63;6.13;;;;;;;;;;5040192;28;24478;-47
2022/09/13 08:39:37;;;;;;;7.45;6.85;;;;;;;;;;5036544;28;25024;-48
2022/09/13 08:42:22;;;;;;;7.82;7.32;;;;;;;;;;5045272;28;24482;-47
2022/09/13 08:44:52;;;;;;;8.15;7.55;;;;;;;;;;5024611;28;21298;-48
2022/09/13 08:47:24;;;;;;;7.07;6.57;;;;;;;;;;5027737;28;24973;-48
2022/09/13 08:49:52;;;;;;;7.25;6.75;;;;;;;;;;5045083;28;24482;-48
2022/09/13 08:52:28;;;;;;;6.90;6.40;;;;;;;;;;5042921;28;25050;-48
2022/09/13 08:54:54;;;;;;;6.70;6.20;;;;;;;;;;5039927;28;24431;-48
2022/09/13 08:57:39;;;;;;;6.82;6.32;;;;;;;;;;5038053;28;25023;-49
2022/09/13 09:00:24;;;;;;;7.70;7.10;;;;;;;;;;5042199;28;24419;-48
2022/09/13 09:02:50;;;;;;;6.40;6.00;;;;;;;;;;5036405;28;24992;-47
2022/09/13 09:05:23;;;;;;;7.10;6.50;;;;;;;;;;5030759;28;24415;-47
2022/09/13 09:08:00;;;;;;;6.57;6.07;;;;;;;;;;5037680;28;24419;-48
2022/09/13 09:10:30;;;;;;;6.30;5.80;;;;;;;;;;5049706;28;24414;-48
2022/09/13 09:12:55;;;;;;;6.20;5.80;;;;;;;;;;5048378;28;24420;-48
2022/09/13 09:15:21;;;;;;;6.38;5.97;;;;;;;;;;5032366;28;24501;-51
2022/09/13 09:18:10;;;;;;;7.30;6.70;;;;;;;;;;5038654;28;24469;-48
2022/09/13 09:20:41;;;;;;;7.90;7.30;;;;;;;;;;5048880;28;24430;-48
2022/09/13 09:23:17;;;;;;;6.77;6.37;;;;;;;;;;5046998;28;24427;-47
2022/09/13 09:25:42;;;;;;;6.28;5.88;;;;;;;;;;5031003;28;24440;-49
2022/09/13 09:28:15;;;;;;;6.70;6.20;;;;;;;;;;5029260;28;24517;-48
2022/09/13 09:30:58;;;;;;;6.80;6.30;;;;;;;;;;5035875;28;25062;-49
2022/09/13 09:33:35;;;;;;;7.00;6.50;;;;;;;;;;5048847;28;24399;-48
2022/09/13 09:36:09;;;;;;;6.88;6.40;;;;;;;;;;5049101;28;24510;-48
2022/09/13 09:38:40;;;;;;;7.65;7.15;;;;;;;;;;5045842;28;24467;-48
2022/09/13 09:41:12;;;;;;;6.73;6.23;;;;;;;;;;5029150;28;24391;-48
2022/09/13 09:43:40;;;;;;;6.20;5.80;;;;;;;;;;5028620;28;24423;-49
2022/09/13 09:46:07;;;;;;;8.20;7.68;;;;;;;;;;5037800;28;24427;-48
2022/09/13 09:48:38;;;;;;;8.20;7.60;;;;;;;;;;5048863;28;24399;-53
2022/09/13 09:51:04;;;;;;;6.50;6.10;;;;;;;;;;5048513;28;24395;-47
2022/09/13 09:53:34;;;;;;;6.18;5.78;;;;;;;;;;5049248;28;24390;-47
2022/09/13 09:56:13;;;;;;;6.00;5.60;;;;;;;;;;5044719;28;24534;-47
2022/09/13 09:58:40;;;;;;;5.60;5.20;;;;;;;;;;5038440;28;24996;-48
2022/09/13 10:01:13;;;;;;;6.65;6.15;;;;;;;;;;5048680;28;25221;-48
2022/09/13 10:03:39;;;;;;;6.57;6.18;;;;;;;;;;5048516;28;24465;-49
2022/09/13 10:06:13;;;;;;;5.95;5.55;;;;;;;;;;5047775;28;24476;-48
2022/09/13 10:08:39;;;;;;;5.65;5.25;;;;;;;;;;5048461;28;24387;-48
2022/09/13 10:11:05;;;;;;;6.30;5.90;;;;;;;;;;5048223;28;24506;-47
2022/09/13 10:13:31;;;;;;;6.63;6.22;;;;;;;;;;5044988;28;24531;-48
2022/09/13 10:15:57;;;;;;;6.88;6.28;;;;;;;;;;5028541;28;24400;-48
2022/09/13 10:18:24;;;;;;;7.27;6.73;;;;;;;;;;5028397;28;24414;-48
2022/09/13 10:21:06;;;;;;;5.60;5.20;;;;;;;;;;5028072;28;24400;-49
2022/09/13 10:23:32;;;;;;;7.50;6.93;;;;;;;;;;5028236;28;24973;-48
2022/09/13 10:26:00;;;;;;;6.20;5.80;;;;;;;;;;5045938;28;24442;-49
2022/09/13 10:28:25;;;;;;;5.68;5.30;;;;;;;;;;5048209;28;24499;-49
2022/09/13 10:30:59;;;;;;;5.83;5.43;;;;;;;;;;5047982;28;24466;-49
2022/09/13 10:33:32;;;;;;;5.80;5.30;;;;;;;;;;5048341;28;24997;-49
2022/09/13 10:36:00;;;;;;;6.00;5.60;;;;;;;;;;5045842;28;24439;-49
2022/09/13 10:38:33;;;;;;;6.35;5.95;;;;;;;;;;5044280;28;24793;-49
2022/09/13 10:41:00;;;;;;;6.40;6.00;;;;;;;;;;5047934;28;24456;-48
2022/09/13 10:43:27;;;;;;;7.10;6.53;;;;;;;;;;5045683;28;24411;-50
2022/09/13 10:45:52;;;;;;;6.40;6.00;;;;;;;;;;5034904;28;24432;-49
2022/09/13 10:48:19;;;;;;;6.20;5.80;;;;;;;;;;5027975;28;24452;-48
2022/09/13 10:51:01;;;;;;;5.93;5.53;;;;;;;;;;5028971;28;24546;-49
2022/09/13 10:53:31;;;;;;;6.30;5.80;;;;;;;;;;5027891;28;24807;-49
2022/09/13 10:55:56;;;;;;;5.78;5.38;;;;;;;;;;5039988;28;24419;-48
2022/09/13 10:58:21;;;;;;;7.60;7.10;;;;;;;;;;5042829;28;24775;-48
2022/09/13 11:01:09;;;;;;;6.20;5.80;;;;;;;;;;5028162;28;24412;-48
2022/09/13 11:03:48;;;;;;;8.00;7.30;;;;;;;;;;5027338;28;24984;-47
2022/09/13 11:06:32;;;;;;;7.00;6.60;;;;;;;;;;5027391;28;24407;-52
2022/09/13 11:09:12;;;;;;;6.40;6.00;;;;;;;;;;5028990;28;24421;-48
2022/09/13 11:11:41;;;;;;;6.63;6.22;;;;;;;;;;5047055;28;24494;-48
2022/09/13 11:14:17;;;;;;;6.60;6.10;;;;;;;;;;5047345;28;24430;-47
2022/09/13 11:16:48;;;;;;;5.57;5.18;;;;;;;;;;5046871;28;25044;-49
2022/09/13 11:19:13;;;;;;;5.50;5.10;;;;;;;;;;5046407;28;24492;-49
2022/09/13 11:21:56;;;;;;;6.10;5.70;;;;;;;;;;5039117;28;24515;-48
2022/09/13 11:24:46;;;;;;;5.77;5.37;;;;;;;;;;5026111;28;24974;-48
2022/09/13 11:27:21;;;;;;;5.40;5.00;;;;;;;;;;5026968;28;24396;-48
2022/09/13 11:30:02;;;;;;;5.40;5.00;;;;;;;;;;5033012;28;24511;-48
2022/09/13 11:32:48;;;;;;;5.50;5.20;;;;;;;;;;5042229;28;24506;-48
2022/09/13 11:35:32;;;;;;;5.47;5.07;;;;;;;;;;5027074;28;24419;-48
2022/09/13 11:38:16;;;;;;;4.30;4.00;;;;;;;;;;5026425;28;24424;-48
2022/09/13 11:41:04;;;;;;;4.50;4.20;;;;;;;;;;5026621;28;24939;-48
2022/09/13 11:43:35;;;;;;;5.03;4.63;;;;;;;;;;5031122;28;24440;-47
2022/09/13 11:46:19;;;;;;;3.80;3.50;;;;;;;;;;5026493;28;24731;-48
2022/09/13 11:48:44;;;;;;;3.55;3.35;;;;;;;;;;5026771;28;24945;-47
2022/09/13 11:51:29;;;;;;;3.50;3.20;;;;;;;;;;5026265;28;24969;-48
2022/09/13 11:54:09;;;;;;;3.30;3.00;;;;;;;;;;5033044;28;24450;-48
2022/09/13 11:56:36;;;;;;;3.30;3.10;;;;;;;;;;5046532;28;24434;-49
2022/09/13 11:59:07;;;;;;;3.20;3.00;;;;;;;;;;5041976;28;24543;-49
2022/09/13 12:01:34;;;;;;;3.45;3.15;;;;;;;;;;5024543;28;24499;-48
2022/09/13 12:04:05;;;;;;;3.10;2.90;;;;;;;;;;5027437;28;24494;-49
2022/09/13 12:06:32;;;;;;;3.60;3.30;;;;;;;;;;5046892;28;24449;-48
2022/09/13 12:09:06;;;;;;;3.30;3.10;;;;;;;;;;5046201;28;24406;-49
2022/09/13 12:11:40;;;;;;;3.53;3.30;;;;;;;;;;5046519;28;24490;-48
2022/09/13 12:14:09;;;;;;;3.70;3.50;;;;;;;;;;5045363;28;24532;-48
2022/09/13 12:16:45;;;;;;;4.00;3.70;;;;;;;;;;5029059;28;24427;-48
2022/09/13 12:19:15;;;;;;;3.50;3.20;;;;;;;;;;5026312;28;25030;-48
2022/09/13 12:21:40;;;;;;;3.10;2.90;;;;;;;;;;5026407;28;24400;-48
2022/09/13 12:24:13;;;;;;;3.13;2.93;;;;;;;;;;5035647;28;24485;-48
2022/09/13 12:26:45;;;;;;;3.50;3.20;;;;;;;;;;5046148;28;24404;-47
2022/09/13 12:29:16;;;;;;;3.30;3.10;;;;;;;;;;5046138;28;24949;-48
2022/09/13 12:31:42;;;;;;;3.40;3.20;;;;;;;;;;5046211;28;24449;-48
2022/09/13 12:34:09;;;;;;;3.00;2.80;;;;;;;;;;5043336;28;24420;-47
2022/09/13 12:36:42;;;;;;;3.00;2.80;;;;;;;;;;5048563;28;25298;-48
2022/09/13 12:39:20;;;;;;;3.05;2.85;;;;;;;;;;5050022;28;24421;-47
2022/09/13 12:42:15;;;;;;;3.10;2.90;;;;;;;;;;5050233;28;24507;-48
2022/09/13 12:44:53;;;;;;;3.00;2.80;;;;;;;;;;5049313;28;24485;-47
2022/09/13 12:47:18;;;;;;;3.20;2.90;;;;;;;;;;5049890;28;24496;-48
2022/09/13 12:49:57;;;;;;;3.15;2.85;;;;;;;;;;5050136;28;24481;-48
2022/09/13 12:52:33;;;;;;;3.20;3.00;;;;;;;;;;5050217;28;24410;-49
2022/09/13 12:55:09;;;;;;;3.20;2.90;;;;;;;;;;5043976;28;25112;-48
2022/09/13 12:57:49;;;;;;;2.75;2.55;;;;;;;;;;5037736;28;24431;-48
2022/09/13 13:00:22;;;;;;;2.70;2.50;;;;;;;;;;5049929;28;24770;-47
2022/09/13 13:02:47;;;;;;;2.75;2.55;;;;;;;;;;5049180;28;24395;-48
2022/09/13 13:05:29;;;;;;;2.30;2.20;;;;;;;;;;5042485;28;24420;-48
2022/09/13 13:08:05;;;;;;;2.60;2.40;;;;;;;;;;5028758;28;24427;-48
2022/09/13 13:10:32;;;;;;;2.40;2.30;;;;;;;;;;5029228;28;24470;-47
2022/09/13 13:13:15;;;;;;;2.33;2.22;;;;;;;;;;5029615;28;24415;-48
2022/09/13 13:15:42;;;;;;;2.70;2.50;;;;;;;;;;5039236;28;24476;-47
2022/09/13 13:18:26;;;;;;;2.40;2.30;;;;;;;;;;5041247;28;24434;-48
2022/09/13 13:20:54;;;;;;;2.30;2.20;;;;;;;;;;5033738;28;24631;-50
2022/09/13 13:23:22;;;;;;;2.60;2.42;;;;;;;;;;5038518;28;24451;-49
2022/09/13 13:25:56;;;;;;;3.20;2.90;;;;;;;;;;5037295;28;24574;-48
2022/09/13 13:28:40;;;;;;;2.88;2.67;;;;;;;;;;5036115;28;25037;-48
2022/09/13 13:31:06;;;;;;;2.70;2.50;;;;;;;;;;5045270;28;24427;-46
2022/09/13 13:33:44;;;;;;;3.70;2.50;;;;;;;;;;5036190;28;24530;-47
2022/09/13 13:36:27;;;;;;;2.50;2.30;;;;;;;;;;5045147;28;24447;-46
2022/09/13 13:38:53;;;;;;;2.90;2.40;;;;;;;;;;5041625;28;24431;-47
2022/09/13 13:41:34;;;;;;;2.30;2.20;;;;;;;;;;5039689;28;24426;-46
2022/09/13 13:44:00;;;;;;;2.30;2.20;;;;;;;;;;5049072;28;24426;-47
2022/09/13 13:46:27;;;;;;;2.80;2.60;;;;;;;;;;5032028;28;24962;-47
2022/09/13 13:48:52;;;;;;;2.80;2.60;;;;;;;;;;5047594;28;24414;-48
2022/09/13 13:51:17;;;;;;;2.63;2.50;;;;;;;;;;5046591;28;24430;-47
2022/09/13 13:53:44;;;;;;;2.50;2.30;;;;;;;;;;5052404;28;24433;-47
2022/09/13 13:56:18;;;;;;;2.30;2.10;;;;;;;;;;5043985;28;24435;-48
2022/09/13 13:58:53;;;;;;;2.78;2.40;;;;;;;;;;5037976;28;24484;-48
2022/09/13 14:01:21;;;;;;;2.50;2.30;;;;;;;;;;5029422;28;24627;-48
2022/09/13 14:03:46;;;;;;;2.70;2.10;;;;;;;;;;5030878;28;24787;-49
2022/09/13 14:06:29;;;;;;;2.40;2.30;;;;;;;;;;5028947;28;25025;-48
2022/09/13 14:08:54;;;;;;;2.00;1.90;;;;;;;;;;5047756;28;25213;-48
2022/09/13 14:11:28;;;;;;;2.30;2.10;;;;;;;;;;5044676;28;25058;-49
2022/09/13 14:13:53;;;;;;;2.22;2.03;;;;;;;;;;5028682;28;24838;-50
2022/09/13 14:16:18;;;;;;;2.53;2.33;;;;;;;;;;5028641;28;24817;-49
2022/09/13 14:18:51;;;;;;;2.00;1.90;;;;;;;;;;5028656;28;24806;-48
2022/09/13 14:21:18;;;;;;;2.47;2.28;;;;;;;;;;5028088;28;24495;-48
2022/09/13 14:23:43;;;;;;;2.60;2.40;;;;;;;;;;5030551;28;24486;-48
2022/09/13 14:26:10;;;;;;;2.40;2.30;;;;;;;;;;5028615;28;24396;-49
2022/09/13 14:28:35;;;;;;;2.40;2.20;;;;;;;;;;5028364;28;24407;-49
2022/09/13 14:31:00;;;;;;;2.40;2.30;;;;;;;;;;5028063;28;24388;-49
2022/09/13 14:33:30;;;;;;;2.07;1.90;;;;;;;;;;5043711;28;24957;-49
2022/09/13 14:35:56;;;;;;;2.20;2.00;;;;;;;;;;5042905;28;24810;-49
2022/09/13 14:38:24;;;;;;;2.30;2.20;;;;;;;;;;5028081;28;24422;-49
2022/09/13 14:40:50;;;;;;;2.10;2.00;;;;;;;;;;5028133;28;24392;-49
2022/09/13 14:43:17;;;;;;;2.20;2.10;;;;;;;;;;5028000;28;24415;-49
2022/09/13 14:45:44;;;;;;;2.10;2.00;;;;;;;;;;5027718;28;24442;-48
2022/09/13 14:48:29;;;;;;;2.63;2.20;;;;;;;;;;5046998;28;24419;-46
2022/09/13 14:50:56;;;;;;;2.22;2.13;;;;;;;;;;5048441;28;24953;-49
2022/09/13 14:53:26;;;;;;;2.38;2.17;;;;;;;;;;5047736;28;24793;-50
2022/09/13 14:55:54;;;;;;;2.70;2.50;;;;;;;;;;5048019;28;24395;-50
2022/09/13 14:58:25;;;;;;;2.80;2.30;;;;;;;;;;5043206;28;24508;-49